Adak Island, Alaska
Current Conditions -  °F | °C
As of 5:56 PM on Friday 19 Dec 2014 (Local Time) from PADK Reporting Station
Overcast Overcast  
Wind Chill: 30°   Ceiling: 4400
Heat Index: 39°   Visibility: 10mi
Dew Point: 36°   Wind: 20mph
Humidity: 87%   Direction: 10°N
Pressure: 28.74"   Gusts: 25mph
Location:  51.88°N, 176.65°W
Report Text: PADK 200256Z AUTO 01017G22KT 10SM FEW034 BKN044 OVC050 04/02 A2874 RMK AO1 52020
Loading
Personal Weather Stations






























Interactive Weather Map New forecast layout! Learn more

10-Day Weather Forecast

Advertisements
Track Severe Weather on mobile